Time;durP1;ratioP1;P1;durP2;ratioP2;P2;SDS_P1;SDS_P2;PMS_P1;PMS_P2;Temp;Humidity;BMP_temperature;BMP_pressure;BME280_temperature;BME280_humidity;BME280_pressure;Samples;Min_cycle;Max_cycle;Signal;HPM_P1;HPM_P2
2022/04/06 00:01:49;;;;;;;20.83;9.65;;;11.60;99.90;;;;;;6247127;23;20008;-86
2022/04/06 00:04:16;;;;;;;26.83;8.73;;;11.70;99.90;;;;;;6248471;23;20504;-91
2022/04/06 00:06:42;;;;;;;20.73;8.23;;;11.60;99.90;;;;;;6249333;22;20040;-87
2022/04/06 00:09:07;;;;;;;23.65;8.63;;;11.60;99.90;;;;;;6250029;23;20007;-87
2022/04/06 00:11:33;;;;;;;19.83;8.80;;;11.60;99.90;;;;;;6250107;23;20004;-88
2022/04/06 00:14:02;;;;;;;25.80;10.13;;;11.50;99.90;;;;;;6248731;23;20027;-88
2022/04/06 00:16:31;;;;;;;25.35;7.88;;;11.50;99.90;;;;;;6251378;23;20004;-88
2022/04/06 00:18:57;;;;;;;19.50;7.32;;;11.40;99.90;;;;;;6251436;23;20434;-89
2022/04/06 00:21:25;;;;;;;24.80;7.93;;;11.40;99.90;;;;;;6251298;23;20065;-88
2022/04/06 00:23:50;;;;;;;24.70;8.15;;;11.50;99.90;;;;;;6249295;22;20062;-87
2022/04/06 00:26:17;;;;;;;19.08;7.60;;;11.50;99.90;;;;;;6250169;23;20000;-85
2022/04/06 00:28:43;;;;;;;25.40;8.10;;;11.50;99.90;;;;;;6250018;22;20493;-86
2022/04/06 00:31:09;;;;;;;20.75;7.05;;;11.50;99.90;;;;;;6250371;23;20000;-88
2022/04/06 00:33:40;;;;;;;24.95;8.32;;;11.50;99.90;;;;;;6247995;23;20051;-87
2022/04/06 00:36:08;;;;;;;17.52;7.25;;;11.50;99.90;;;;;;6249410;23;20012;-88
2022/04/06 00:38:33;;;;;;;22.33;7.53;;;11.50;99.90;;;;;;6248350;23;20603;-86
2022/04/06 00:41:01;;;;;;;29.25;7.45;;;11.50;99.90;;;;;;6248492;23;20039;-88
2022/04/06 00:43:27;;;;;;;24.10;7.53;;;11.40;99.90;;;;;;6246473;23;20028;-88
2022/04/06 00:45:52;;;;;;;19.17;7.35;;;11.30;99.90;;;;;;6249685;23;20448;-87
2022/04/06 00:48:21;;;;;;;23.98;7.80;;;11.40;99.90;;;;;;6248858;23;20031;-87
2022/04/06 00:50:49;;;;;;;20.77;7.50;;;11.40;99.90;;;;;;6244993;23;20004;-86
2022/04/06 00:53:14;;;;;;;18.52;7.28;;;11.40;99.90;;;;;;6246059;23;20007;-87
2022/04/06 00:55:40;;;;;;;23.25;7.35;;;11.40;99.90;;;;;;6245601;22;20004;-85
2022/04/06 00:58:06;;;;;;;20.08;7.35;;;11.40;99.90;;;;;;6246072;23;20062;-86
2022/04/06 01:00:32;;;;;;;21.25;6.72;;;11.30;99.90;;;;;;6244385;23;20078;-87
2022/04/06 01:02:59;;;;;;;22.52;7.20;;;11.30;99.90;;;;;;6246157;22;20004;-86
2022/04/06 01:05:25;;;;;;;20.42;7.43;;;11.30;99.90;;;;;;6245178;22;20050;-84
2022/04/06 01:07:54;;;;;;;17.73;6.70;;;11.30;99.90;;;;;;6250248;23;20024;-85
2022/04/06 01:10:20;;;;;;;23.52;7.57;;;11.30;99.90;;;;;;6246574;22;20004;-79
2022/04/06 01:12:47;;;;;;;17.88;6.65;;;11.30;99.90;;;;;;6245775;23;20008;-86
2022/04/06 01:15:15;;;;;;;18.52;6.53;;;11.30;99.90;;;;;;6246228;22;20001;-85
2022/04/06 01:17:41;;;;;;;20.48;6.45;;;11.30;99.90;;;;;;6246393;22;20479;-85
2022/04/06 01:20:09;;;;;;;24.15;7.75;;;11.30;99.90;;;;;;6247711;22;20052;-87
2022/04/06 01:22:35;;;;;;;24.42;6.70;;;11.30;99.90;;;;;;6273304;22;20023;-88
2022/04/06 01:25:03;;;;;;;20.58;7.50;;;11.30;99.90;;;;;;6247996;23;20000;-84
2022/04/06 01:27:29;;;;;;;22.20;6.63;;;11.20;99.90;;;;;;6270662;22;20016;-87
2022/04/06 01:29:56;;;;;;;20.80;6.32;;;11.30;99.90;;;;;;6249837;23;20007;-86
2022/04/06 01:32:25;;;;;;;19.55;5.93;;;11.30;99.90;;;;;;6250449;23;20000;-87
2022/04/06 01:34:56;;;;;;;23.55;7.18;;;11.20;99.90;;;;;;6249931;22;20000;-86
2022/04/06 01:37:23;;;;;;;16.55;5.68;;;11.30;99.90;;;;;;6250485;22;20035;-87
2022/04/06 01:39:50;;;;;;;18.80;6.35;;;11.30;99.90;;;;;;6246921;22;20415;-87
2022/04/06 01:42:19;;;;;;;15.40;5.28;;;11.20;99.90;;;;;;6247426;22;20107;-87
2022/04/06 01:44:47;;;;;;;15.52;5.40;;;11.20;99.90;;;;;;6252833;22;20467;-87
2022/04/06 01:47:17;;;;;;;18.63;5.93;;;11.20;99.90;;;;;;6248678;22;20018;-86
2022/04/06 01:52:31;;;;;;;16.05;6.03;;;11.20;99.90;;;;;;6248662;23;20019;-87
2022/04/06 01:55:02;;;;;;;16.08;5.43;;;11.30;99.90;;;;;;6253206;22;20000;-88
2022/04/06 01:57:28;;;;;;;19.23;5.80;;;11.30;99.90;;;;;;6250709;22;20060;-88
2022/04/06 01:59:55;;;;;;;17.63;5.93;;;11.30;99.90;;;;;;6252178;22;20039;-82
2022/04/06 02:02:30;;;;;;;17.88;6.50;;;11.20;99.90;;;;;;6251196;23;20011;-87
2022/04/06 02:04:59;;;;;;;17.27;5.85;;;11.20;99.90;;;;;;6252296;22;20356;-88
2022/04/06 02:07:26;;;;;;;15.25;6.13;;;11.10;99.90;;;;;;6251981;22;20000;-87
2022/04/06 02:09:52;;;;;;;13.50;6.55;;;11.20;99.90;;;;;;6255338;22;20004;-88
2022/04/06 02:12:18;;;;;;;22.58;6.38;;;11.20;99.90;;;;;;6251415;22;20050;-87
2022/04/06 02:14:43;;;;;;;20.50;6.47;;;11.10;99.90;;;;;;6254413;23;20003;-86
2022/04/06 02:17:10;;;;;;;21.58;5.97;;;11.10;99.90;;;;;;6256408;22;20000;-88
2022/04/06 02:19:37;;;;;;;20.88;5.68;;;11.10;99.90;;;;;;6254717;23;20004;-87
2022/04/06 02:22:04;;;;;;;18.20;6.07;;;11.10;99.90;;;;;;6259199;22;20011;-88
2022/04/06 02:24:36;;;;;;;21.92;6.28;;;11.10;99.90;;;;;;6260142;22;19996;-89
2022/04/06 02:27:04;;;;;;;21.17;6.35;;;11.20;99.90;;;;;;6259014;22;20069;-87
2022/04/06 02:29:30;;;;;;;19.90;5.22;;;11.10;99.90;;;;;;6258533;22;20007;-88
2022/04/06 02:32:02;;;;;;;23.73;5.28;;;11.10;99.90;;;;;;6260401;23;20071;-88
2022/04/06 02:34:28;;;;;;;15.75;5.07;;;11.10;99.90;;;;;;6258112;22;20003;-88
2022/04/06 02:36:55;;;;;;;18.98;4.93;;;11.00;99.90;;;;;;6256858;22;20004;-89
2022/04/06 02:39:21;;;;;;;14.35;4.38;;;11.10;99.90;;;;;;6262838;22;20004;-87
2022/04/06 02:41:53;;;;;;;21.80;5.25;;;11.00;99.90;;;;;;6264031;22;20012;-88
2022/04/06 02:44:18;;;;;;;16.10;5.45;;;11.00;99.90;;;;;;6261526;22;20042;-90
2022/04/06 02:46:48;;;;;;;20.27;5.22;;;11.00;99.90;;;;;;6260813;23;19996;-89
2022/04/06 02:49:18;;;;;;;12.02;4.55;;;11.00;99.90;;;;;;6262317;23;20004;-90
2022/04/06 02:51:44;;;;;;;11.32;4.90;;;11.00;99.90;;;;;;6281468;22;20004;-90
2022/04/06 02:54:11;;;;;;;18.73;4.32;;;11.00;99.90;;;;;;6261199;23;20003;-89
2022/04/06 02:56:37;;;;;;;12.10;4.47;;;10.90;99.90;;;;;;6255556;22;20004;-88
2022/04/06 02:59:02;;;;;;;20.42;5.00;;;10.90;99.90;;;;;;6253282;23;20012;-87
2022/04/06 03:01:28;;;;;;;13.98;4.93;;;10.90;99.90;;;;;;6254687;23;20015;-89
2022/04/06 03:03:56;;;;;;;15.55;4.50;;;10.80;99.90;;;;;;6251495;23;20019;-89
2022/04/06 03:06:24;;;;;;;19.60;4.40;;;10.80;99.90;;;;;;6252042;23;20004;-90
2022/04/06 03:08:52;;;;;;;12.32;4.55;;;10.80;99.90;;;;;;6250185;23;20011;-88
2022/04/06 03:11:18;;;;;;;17.83;4.28;;;10.80;99.90;;;;;;6251630;22;20004;-88
2022/04/06 03:13:45;;;;;;;14.82;4.07;;;10.80;99.90;;;;;;6253775;23;20349;-89
2022/04/06 03:16:17;;;;;;;16.50;3.97;;;10.80;99.90;;;;;;6253433;23;20023;-89
2022/04/06 03:18:43;;;;;;;11.73;4.03;;;10.80;99.90;;;;;;6257187;22;20000;-88
2022/04/06 03:21:09;;;;;;;18.95;4.95;;;10.80;99.90;;;;;;6260091;23;20126;-89
2022/04/06 03:23:35;;;;;;;12.85;4.43;;;10.90;99.90;;;;;;6256932;23;20003;-82
2022/04/06 03:26:01;;;;;;;13.75;4.57;;;10.90;99.90;;;;;;6253828;22;20004;-86
2022/04/06 03:28:27;;;;;;;13.77;4.20;;;10.90;99.90;;;;;;6256161;23;20004;-88
2022/04/06 03:30:53;;;;;;;14.55;4.60;;;10.90;99.90;;;;;;6251651;23;20115;-87
2022/04/06 03:33:19;;;;;;;9.68;3.63;;;10.90;99.90;;;;;;6253304;23;20000;-88
2022/04/06 03:35:45;;;;;;;9.30;3.38;;;10.90;99.90;;;;;;6252602;22;20071;-87
2022/04/06 03:38:11;;;;;;;11.95;3.63;;;10.90;99.90;;;;;;6254843;23;20000;-89
2022/04/06 03:40:37;;;;;;;16.83;3.40;;;10.90;99.90;;;;;;6253437;22;20015;-89
2022/04/06 03:43:02;;;;;;;15.98;3.28;;;10.90;99.90;;;;;;6255086;23;19997;-87
2022/04/06 03:45:34;;;;;;;12.73;3.13;;;10.80;99.90;;;;;;6254483;23;20035;-89
2022/04/06 03:48:00;;;;;;;12.95;3.58;;;10.80;99.90;;;;;;6256974;22;20003;-90
2022/04/06 03:50:26;;;;;;;14.45;3.72;;;10.90;99.90;;;;;;6255759;22;20051;-89
2022/04/06 03:52:52;;;;;;;13.93;3.72;;;10.80;99.90;;;;;;6254852;23;20422;-88
2022/04/06 03:55:17;;;;;;;11.73;3.72;;;10.70;99.90;;;;;;6257389;23;20024;-89
2022/04/06 03:57:43;;;;;;;14.80;3.55;;;10.80;99.90;;;;;;6257344;23;20031;-90
2022/04/06 04:00:12;;;;;;;17.20;3.97;;;10.80;99.90;;;;;;6253941;23;20319;-87
2022/04/06 04:02:39;;;;;;;22.08;4.10;;;10.80;99.90;;;;;;6254878;22;20005;-87
2022/04/06 04:05:07;;;;;;;14.57;3.97;;;10.80;99.90;;;;;;6258839;23;20011;-90
2022/04/06 04:07:43;;;;;;;17.88;5.22;;;10.80;99.90;;;;;;6260745;22;20003;-88
2022/04/06 04:10:10;;;;;;;15.02;4.30;;;10.80;99.90;;;;;;6258137;22;20043;-89
2022/04/06 04:12:38;;;;;;;16.15;5.25;;;10.70;99.90;;;;;;6256898;22;20000;-90
2022/04/06 04:15:05;;;;;;;15.05;4.43;;;10.70;99.90;;;;;;6257743;23;20000;-89
2022/04/06 04:17:35;;;;;;;20.65;5.32;;;10.70;99.90;;;;;;6258749;22;20008;-89
2022/04/06 04:20:01;;;;;;;16.95;5.57;;;10.70;99.90;;;;;;6261021;23;20053;-88
2022/04/06 04:22:27;;;;;;;15.32;5.85;;;10.70;99.90;;;;;;6256720;23;20039;-88
2022/04/06 04:24:56;;;;;;;18.80;7.00;;;10.70;99.90;;;;;;6257391;23;19997;-91
2022/04/06 04:27:22;;;;;;;17.48;6.32;;;10.80;99.90;;;;;;6259138;23;20011;-89
2022/04/06 04:29:49;;;;;;;16.77;5.78;;;10.80;99.90;;;;;;6258590;22;20000;-90
2022/04/06 04:32:16;;;;;;;22.00;6.22;;;10.80;99.90;;;;;;6261362;23;19984;-89
2022/04/06 04:34:45;;;;;;;19.38;6.47;;;10.80;99.90;;;;;;6254003;23;20054;-90
2022/04/06 04:37:11;;;;;;;18.40;6.68;;;10.80;99.90;;;;;;6259885;22;20445;-87
2022/04/06 04:39:37;;;;;;;19.88;6.38;;;10.80;99.90;;;;;;6254629;22;20004;-90
2022/04/06 04:42:04;;;;;;;18.05;5.82;;;10.70;99.90;;;;;;6253663;23;20034;-89
2022/04/06 04:44:34;;;;;;;19.13;5.40;;;10.80;99.90;;;;;;6253594;22;20031;-90
2022/04/06 04:47:00;;;;;;;14.85;5.90;;;10.80;99.90;;;;;;6253581;23;20058;-90
2022/04/06 04:49:29;;;;;;;19.38;6.20;;;10.70;99.90;;;;;;6255133;23;19996;-91
2022/04/06 04:52:01;;;;;;;16.30;4.65;;;10.80;99.90;;;;;;6258525;23;20000;-91
2022/04/06 04:54:27;;;;;;;14.63;5.15;;;10.80;99.90;;;;;;6254265;23;20099;-90
2022/04/06 04:56:53;;;;;;;22.30;5.13;;;10.80;99.90;;;;;;6249550;23;19996;-90
2022/04/06 04:59:25;;;;;;;16.33;4.65;;;10.80;99.90;;;;;;6252111;23;20015;-90
2022/04/06 05:01:53;;;;;;;20.55;4.50;;;10.80;99.90;;;;;;6255684;22;20491;-89
2022/04/06 05:04:22;;;;;;;17.85;4.15;;;10.80;99.90;;;;;;6257433;23;20002;-91
2022/04/06 05:06:49;;;;;;;14.45;4.13;;;10.80;99.90;;;;;;6251791;22;20000;-90
2022/04/06 05:09:20;;;;;;;11.18;3.60;;;10.80;99.90;;;;;;6253130;23;20020;-91
2022/04/06 05:11:47;;;;;;;12.77;3.80;;;10.70;99.90;;;;;;6250707;23;20072;-89
2022/04/06 05:14:14;;;;;;;16.02;3.65;;;10.70;99.90;;;;;;6254498;22;20000;-89
2022/04/06 05:16:42;;;;;;;12.50;3.60;;;10.70;99.90;;;;;;6280168;22;20000;-90
2022/04/06 05:19:08;;;;;;;8.00;3.15;;;10.70;99.90;;;;;;6253352;22;20075;-90
2022/04/06 05:21:37;;;;;;;9.80;2.92;;;10.70;99.90;;;;;;6251191;23;20016;-90
2022/04/06 05:24:06;;;;;;;9.20;2.53;;;10.80;99.90;;;;;;6256808;23;20007;-91
2022/04/06 05:26:35;;;;;;;10.95;4.00;;;10.70;99.90;;;;;;6257714;23;20416;-89
2022/04/06 05:29:07;;;;;;;11.57;3.03;;;10.80;99.90;;;;;;6255215;22;20081;-88
2022/04/06 05:31:36;;;;;;;10.40;2.72;;;10.80;99.90;;;;;;6257862;22;20007;-89
2022/04/06 05:34:13;;;;;;;10.43;3.17;;;10.80;99.90;;;;;;6260888;22;20039;-88
2022/04/06 05:36:49;;;;;;;10.90;2.88;;;10.80;99.90;;;;;;6256115;23;20015;-88
2022/04/06 05:39:18;;;;;;;13.13;3.67;;;10.80;99.90;;;;;;6259387;23;20056;-89
2022/04/06 05:41:44;;;;;;;8.82;2.70;;;10.80;99.90;;;;;;6259833;23;20043;-88
2022/04/06 05:44:10;;;;;;;10.77;2.92;;;10.80;99.90;;;;;;6263519;23;20000;-88
2022/04/06 05:46:36;;;;;;;15.27;3.00;;;10.80;99.90;;;;;;6260207;23;20007;-88
2022/04/06 05:49:03;;;;;;;9.40;3.05;;;10.90;99.90;;;;;;6256803;23;20000;-84
2022/04/06 05:51:29;;;;;;;11.00;3.53;;;10.90;99.90;;;;;;6257886;23;20023;-88
2022/04/06 05:53:55;;;;;;;12.57;3.85;;;10.80;99.90;;;;;;6260228;23;20421;-91
2022/04/06 05:56:20;;;;;;;6.97;3.25;;;10.80;99.90;;;;;;6258141;23;20000;-90
2022/04/06 05:58:46;;;;;;;11.85;3.90;;;10.80;99.90;;;;;;6258049;23;20035;-85
2022/04/06 06:01:12;;;;;;;10.50;4.13;;;10.80;99.90;;;;;;6256986;23;20012;-89
2022/04/06 06:03:37;;;;;;;14.30;4.38;;;10.80;99.90;;;;;;6259843;23;20003;-90
2022/04/06 06:06:05;;;;;;;13.05;3.97;;;10.80;99.90;;;;;;6262470;23;20361;-91
2022/04/06 06:08:31;;;;;;;14.10;4.32;;;10.80;99.90;;;;;;6258070;23;20027;-89
2022/04/06 06:10:59;;;;;;;11.90;4.80;;;10.90;99.90;;;;;;6261780;23;20075;-90
2022/04/06 06:13:25;;;;;;;11.68;5.00;;;10.80;99.90;;;;;;6249954;23;20006;-89
2022/04/06 06:15:52;;;;;;;12.70;5.05;;;10.80;99.90;;;;;;6251376;23;20386;-82
2022/04/06 06:18:17;;;;;;;13.18;5.07;;;10.80;99.90;;;;;;6248608;23;20000;-87
2022/04/06 06:20:49;;;;;;;16.75;6.57;;;10.80;99.90;;;;;;6253722;23;20055;-89
2022/04/06 06:23:14;;;;;;;21.42;6.75;;;10.80;99.90;;;;;;6247786;23;20027;-90
2022/04/06 06:25:41;;;;;;;19.67;6.13;;;10.80;99.90;;;;;;6247440;22;19997;-87
2022/04/06 06:28:08;;;;;;;13.18;6.80;;;10.80;99.90;;;;;;6248641;23;19999;-80
2022/04/06 06:30:33;;;;;;;13.50;5.55;;;10.80;99.90;;;;;;6245191;22;20024;-86
2022/04/06 06:32:59;;;;;;;15.82;5.82;;;10.90;99.90;;;;;;6242875;23;20007;-85
2022/04/06 06:35:25;;;;;;;14.13;6.05;;;10.80;99.90;;;;;;6245284;23;20023;-87
2022/04/06 06:37:56;;;;;;;16.95;5.85;;;10.90;99.90;;;;;;6244091;22;20303;-85
2022/04/06 06:40:24;;;;;;;15.70;5.00;;;10.90;99.90;;;;;;6245083;22;20012;-85
2022/04/06 06:42:50;;;;;;;15.07;5.50;;;10.80;99.90;;;;;;6245015;22;20213;-86
2022/04/06 06:45:16;;;;;;;18.38;5.50;;;10.80;99.90;;;;;;6246141;23;20372;-87
2022/04/06 06:47:42;;;;;;;13.48;4.88;;;10.80;99.90;;;;;;6246850;22;20004;-87
2022/04/06 06:50:09;;;;;;;14.32;5.43;;;10.80;99.90;;;;;;6247592;22;20000;-88
2022/04/06 06:52:35;;;;;;;13.25;5.07;;;10.90;99.90;;;;;;6247532;22;20023;-87
2022/04/06 06:55:07;;;;;;;17.88;5.15;;;10.90;99.90;;;;;;6246357;22;20000;-87
2022/04/06 06:57:33;;;;;;;16.17;6.40;;;11.00;99.90;;;;;;6247000;22;20008;-87
2022/04/06 06:59:59;;;;;;;17.58;6.30;;;10.90;99.90;;;;;;6250179;22;20000;-87
2022/04/06 07:02:25;;;;;;;12.63;5.15;;;10.90;99.90;;;;;;6254307;23;20456;-87
2022/04/06 07:04:51;;;;;;;15.27;5.63;;;11.00;99.90;;;;;;6256302;22;19996;-89
2022/04/06 07:07:18;;;;;;;13.48;5.25;;;11.00;99.90;;;;;;6252797;23;20004;-89
2022/04/06 07:09:43;;;;;;;12.15;5.28;;;11.10;99.90;;;;;;6247644;23;20005;-88
2022/04/06 07:12:10;;;;;;;15.13;6.10;;;11.00;99.90;;;;;;6250077;22;20010;-88
2022/04/06 07:14:38;;;;;;;21.10;5.65;;;11.00;99.90;;;;;;6248506;22;20000;-88
2022/04/06 07:17:04;;;;;;;10.38;5.75;;;11.10;99.90;;;;;;6249219;23;20077;-88
2022/04/06 07:19:30;;;;;;;10.25;4.78;;;11.10;99.90;;;;;;6248792;23;20000;-90
2022/04/06 07:21:55;;;;;;;10.77;4.53;;;11.10;99.90;;;;;;6247905;23;20066;-87
2022/04/06 07:24:21;;;;;;;10.32;4.88;;;11.20;99.90;;;;;;6245018;23;20004;-85
2022/04/06 07:26:48;;;;;;;12.00;5.20;;;11.20;99.90;;;;;;6246379;23;20432;-86
2022/04/06 07:29:15;;;;;;;13.50;4.95;;;11.20;99.90;;;;;;6247882;23;20011;-88
2022/04/06 07:31:44;;;;;;;11.20;4.40;;;11.20;99.90;;;;;;6244485;22;20000;-88
2022/04/06 07:34:11;;;;;;;14.70;4.20;;;11.30;99.90;;;;;;6244434;23;20400;-89
2022/04/06 07:36:37;;;;;;;8.32;4.00;;;11.30;99.90;;;;;;6243780;23;20099;-87
2022/04/06 07:39:06;;;;;;;8.40;3.83;;;11.30;99.90;;;;;;6246983;22;20357;-88
2022/04/06 07:41:33;;;;;;;11.02;4.30;;;11.40;99.90;;;;;;6247725;22;20015;-87
2022/04/06 07:43:59;;;;;;;17.60;4.25;;;11.40;99.90;;;;;;6252754;23;20003;-89
2022/04/06 07:46:33;;;;;;;8.77;3.85;;;11.40;99.90;;;;;;6255660;23;20007;-90
2022/04/06 07:48:58;;;;;;;6.90;3.55;;;11.50;99.90;;;;;;6247484;22;20000;-89
2022/04/06 07:51:24;;;;;;;13.23;4.10;;;11.40;99.90;;;;;;6249789;23;20032;-90
2022/04/06 07:53:50;;;;;;;8.32;3.45;;;11.40;99.90;;;;;;6250723;23;20019;-90
2022/04/06 07:56:15;;;;;;;9.93;3.50;;;11.50;99.90;;;;;;6254684;23;20004;-89
2022/04/06 07:58:41;;;;;;;8.10;3.15;;;11.60;99.90;;;;;;6247678;23;20020;-89
2022/04/06 08:01:08;;;;;;;9.30;2.58;;;11.50;99.90;;;;;;6248588;23;20015;-88
2022/04/06 08:03:35;;;;;;;11.13;3.50;;;11.40;99.90;;;;;;6245133;22;20128;-86
2022/04/06 08:06:01;;;;;;;10.98;3.28;;;11.40;99.90;;;;;;6248688;22;20000;-83
2022/04/06 08:08:27;;;;;;;8.13;3.47;;;11.40;99.90;;;;;;6251972;22;20024;-83
2022/04/06 08:10:53;;;;;;;8.07;2.95;;;11.40;99.90;;;;;;6244008;23;20004;-83
2022/04/06 08:13:18;;;;;;;10.45;3.30;;;11.40;99.90;;;;;;6244857;23;20030;-84
2022/04/06 08:15:44;;;;;;;8.20;3.45;;;11.50;99.90;;;;;;6245626;23;20027;-83
2022/04/06 08:18:11;;;;;;;6.82;2.70;;;11.40;99.90;;;;;;6243762;23;20054;-85
2022/04/06 08:20:37;;;;;;;7.05;2.90;;;11.30;99.90;;;;;;6245949;22;20062;-84
2022/04/06 08:23:02;;;;;;;11.05;3.17;;;11.30;99.90;;;;;;6244622;22;20000;-84
2022/04/06 08:25:29;;;;;;;9.20;2.80;;;11.30;99.90;;;;;;6245032;23;20000;-84
2022/04/06 08:27:54;;;;;;;7.80;2.67;;;11.30;99.90;;;;;;6245805;22;19997;-85
2022/04/06 08:30:22;;;;;;;7.72;2.78;;;11.30;99.90;;;;;;6245539;22;20000;-85
2022/04/06 08:32:48;;;;;;;10.13;2.72;;;11.20;99.90;;;;;;6243698;23;20065;-84
2022/04/06 08:35:14;;;;;;;10.77;3.17;;;11.20;99.90;;;;;;6245557;22;20425;-85
2022/04/06 08:37:40;;;;;;;11.52;3.00;;;11.20;99.90;;;;;;6246635;23;20006;-87
2022/04/06 08:40:10;;;;;;;5.97;2.97;;;11.30;99.90;;;;;;6247137;22;20000;-87
2022/04/06 08:42:37;;;;;;;10.60;3.05;;;11.30;99.90;;;;;;6246228;22;20111;-86
2022/04/06 08:45:04;;;;;;;8.27;2.70;;;11.30;99.90;;;;;;6247562;22;20007;-87
2022/04/06 08:47:34;;;;;;;7.13;3.05;;;11.40;99.90;;;;;;6251764;22;20004;-86
2022/04/06 08:50:06;;;;;;;9.45;2.90;;;11.40;99.90;;;;;;6247047;22;20008;-87
2022/04/06 08:52:35;;;;;;;9.00;3.33;;;11.50;99.90;;;;;;6250030;22;20010;-85
2022/04/06 08:55:02;;;;;;;7.85;2.55;;;11.50;99.90;;;;;;6250112;22;20000;-87
2022/04/06 08:57:28;;;;;;;11.38;2.85;;;11.60;99.90;;;;;;6252763;22;20004;-88
2022/04/06 08:59:55;;;;;;;11.88;3.10;;;11.60;99.90;;;;;;6253975;23;20008;-88
2022/04/06 09:02:22;;;;;;;9.30;3.38;;;11.70;99.90;;;;;;6257134;23;20004;-87
2022/04/06 09:04:55;;;;;;;8.93;3.03;;;11.80;99.90;;;;;;6249748;22;20000;-85
2022/04/06 09:07:22;;;;;;;;;;;11.80;99.90;;;;;;6249210;22;20000;-86
2022/04/06 09:09:55;;;;;;;9.93;2.88;;;11.80;99.90;;;;;;6253853;22;19895;-88
2022/04/06 09:12:26;;;;;;;9.18;3.03;;;11.80;99.90;;;;;;6259382;22;20310;-83
2022/04/06 09:15:09;;;;;;;9.52;2.85;;;11.80;99.90;;;;;;6259347;23;20004;-87
2022/04/06 09:17:47;;;;;;;10.00;3.30;;;11.80;99.90;;;;;;6257850;22;20337;-89
2022/04/06 09:20:14;;;;;;;13.45;3.40;;;11.80;99.90;;;;;;6255860;22;20015;-87
2022/04/06 09:22:40;;;;;;;8.02;3.72;;;11.80;99.90;;;;;;6256551;22;20032;-87
2022/04/06 09:25:09;;;;;;;9.18;3.17;;;11.80;99.90;;;;;;6251147;22;20004;-88
2022/04/06 09:27:38;;;;;;;9.30;3.92;;;11.80;99.90;;;;;;6249146;22;20091;-86
2022/04/06 09:30:05;;;;;;;11.90;4.38;;;11.90;99.90;;;;;;6244760;22;20000;-83
2022/04/06 09:32:31;;;;;;;12.10;3.92;;;11.90;99.90;;;;;;6244550;22;20485;-84
2022/04/06 09:34:57;;;;;;;8.70;3.28;;;11.80;99.90;;;;;;6241440;23;20050;-86
2022/04/06 09:37:23;;;;;;;8.70;3.65;;;11.90;99.90;;;;;;6268732;22;20083;-84
2022/04/06 09:39:48;;;;;;;10.82;4.05;;;11.80;99.90;;;;;;6243351;23;20004;-86
2022/04/06 09:42:27;;;;;;;11.98;4.07;;;11.80;99.90;;;;;;6243682;22;20011;-83
2022/04/06 09:47:51;;;;;;;12.23;3.67;;;11.80;99.90;;;;;;6244853;23;20085;-85
2022/04/06 09:50:24;;;;;;;9.25;3.47;;;11.80;99.90;;;;;;6241383;22;20402;-85
2022/04/06 09:52:52;;;;;;;6.93;3.28;;;11.70;99.90;;;;;;6243272;22;20004;-87
2022/04/06 09:55:19;;;;;;;8.75;3.47;;;11.70;99.90;;;;;;6240300;22;21025;-84
2022/04/06 09:57:55;;;;;;;11.23;3.38;;;11.80;99.90;;;;;;6243981;22;20027;-80
2022/04/06 10:00:23;;;;;;;8.45;3.38;;;11.90;99.90;;;;;;6243572;22;20017;-80
2022/04/06 10:03:08;;;;;;;8.00;3.20;;;12.00;99.90;;;;;;6242003;22;19996;-81
2022/04/06 10:05:38;;;;;;;12.15;3.90;;;12.00;99.90;;;;;;6243696;22;20008;-81
2022/04/06 10:08:06;;;;;;;5.63;3.33;;;12.00;99.90;;;;;;6245085;22;20004;-81
2022/04/06 10:10:38;;;;;;;17.15;3.75;;;12.00;99.90;;;;;;6242284;22;20235;-81
2022/04/06 10:13:04;;;;;;;9.60;3.75;;;12.00;99.90;;;;;;6244620;22;20000;-80
2022/04/06 10:15:31;;;;;;;8.88;3.30;;;12.10;99.90;;;;;;6244227;22;20011;-78
2022/04/06 10:17:57;;;;;;;8.05;3.63;;;12.10;99.90;;;;;;6245780;22;20007;-79
2022/04/06 10:20:25;;;;;;;8.32;2.90;;;12.10;99.90;;;;;;6245889;22;20047;-80
2022/04/06 10:23:07;;;;;;;12.32;3.38;;;12.20;99.90;;;;;;6244348;23;20000;-79
2022/04/06 10:25:51;;;;;;;8.63;2.85;;;12.30;99.90;;;;;;6244505;23;20007;-79
2022/04/06 10:28:20;;;;;;;8.43;3.40;;;12.30;99.90;;;;;;6246155;22;20000;-82
2022/04/06 10:31:17;;;;;;;10.32;2.75;;;12.40;99.90;;;;;;6246324;22;20366;-79
2022/04/06 10:33:43;;;;;;;6.93;2.05;;;12.30;99.90;;;;;;6232574;22;20036;-78
2022/04/06 10:36:23;;;;;;;12.60;2.95;;;12.40;99.90;;;;;;6245441;22;20429;-78
2022/04/06 10:39:04;;;;;;;4.78;2.70;;;12.40;99.90;;;;;;6245458;22;20000;-80
2022/04/06 10:41:31;;;;;;;10.45;3.00;;;12.40;99.90;;;;;;6245915;22;20019;-80
2022/04/06 10:43:57;;;;;;;9.05;2.90;;;12.40;99.90;;;;;;6246111;22;20001;-79
2022/04/06 10:46:40;;;;;;;8.85;3.13;;;12.30;99.90;;;;;;6246258;22;20000;-79
2022/04/06 10:49:06;;;;;;;5.43;2.78;;;12.30;99.90;;;;;;6245932;22;20000;-81
2022/04/06 10:51:37;;;;;;;7.65;3.28;;;12.30;99.90;;;;;;6247259;22;20091;-79
2022/04/06 10:54:38;;;;;;;8.07;2.78;;;12.30;99.90;;;;;;6246396;22;20027;-80
2022/04/06 10:57:05;;;;;;;9.68;3.00;;;12.30;99.90;;;;;;6216476;22;20005;-84
2022/04/06 10:59:30;;;;;;;5.78;3.00;;;12.40;99.90;;;;;;6247155;22;20058;-81
2022/04/06 11:02:27;;;;;;;9.73;3.50;;;12.30;99.90;;;;;;6246274;23;20016;-79
2022/04/06 11:04:53;;;;;;;7.53;3.10;;;12.30;99.90;;;;;;6244756;22;20051;-81
2022/04/06 11:10:27;;;;;;;6.78;3.85;;;12.30;99.90;;;;;;6240183;22;20019;-78
2022/04/06 11:12:59;;;;;;;9.48;3.72;;;12.30;99.90;;;;;;6245030;23;20000;-80
2022/04/06 11:15:38;;;;;;;12.10;3.80;;;12.30;99.90;;;;;;6244337;23;20494;-79
2022/04/06 11:18:24;;;;;;;9.27;3.97;;;12.30;99.90;;;;;;6270222;22;20370;-80
2022/04/06 11:21:00;;;;;;;6.30;4.13;;;12.40;99.90;;;;;;6229259;22;20094;-79
2022/04/06 11:23:29;;;;;;;8.45;4.47;;;12.40;99.90;;;;;;6243061;22;20142;-78
2022/04/06 11:25:56;;;;;;;8.13;4.45;;;12.40;99.90;;;;;;6244464;22;20000;-78
2022/04/06 11:28:27;;;;;;;10.40;4.55;;;12.40;99.90;;;;;;6244736;22;20030;-82
2022/04/06 11:30:52;;;;;;;12.85;4.57;;;12.50;99.90;;;;;;6244841;22;20079;-80
2022/04/06 11:33:18;;;;;;;6.28;4.95;;;12.40;99.90;;;;;;6245521;23;20366;-82
2022/04/06 11:35:44;;;;;;;10.38;5.05;;;12.50;99.90;;;;;;6243598;23;20325;-79
2022/04/06 11:38:09;;;;;;;7.78;5.07;;;12.50;99.90;;;;;;6244470;23;20005;-81
2022/04/06 11:40:42;;;;;;;8.35;5.15;;;12.50;99.90;;;;;;6244649;23;20016;-79
2022/04/06 11:43:08;;;;;;;;;;;12.50;99.90;;;;;;6243488;22;20161;-82
2022/04/06 11:45:44;;;;;;;8.63;4.50;;;12.50;99.90;;;;;;6246900;22;20337;-80
2022/04/06 11:48:12;;;;;;;10.40;4.75;;;12.60;99.90;;;;;;6243574;22;20426;-83
2022/04/06 11:50:39;;;;;;;7.40;5.40;;;12.60;99.90;;;;;;6245150;22;20012;-80
2022/04/06 11:53:07;;;;;;;11.27;4.70;;;12.70;99.90;;;;;;6243965;22;20382;-79
2022/04/06 11:55:39;;;;;;;9.80;5.20;;;12.70;99.90;;;;;;6243700;22;20000;-83
2022/04/06 11:58:05;;;;;;;12.30;4.85;;;12.50;99.90;;;;;;6244002;23;20011;-83
2022/04/06 12:00:34;;;;;;;8.65;4.70;;;12.60;99.90;;;;;;6244903;23;20004;-84
2022/04/06 12:02:59;;;;;;;6.40;5.07;;;12.60;99.90;;;;;;6242770;23;20001;-81
2022/04/06 12:05:25;;;;;;;9.07;4.75;;;12.70;99.90;;;;;;6243740;23;20007;-84
2022/04/06 12:08:12;;;;;;;9.70;5.47;;;12.70;99.90;;;;;;6245366;22;20031;-84
2022/04/06 12:10:56;;;;;;;6.65;4.88;;;12.80;99.90;;;;;;6244622;22;20012;-87
2022/04/06 12:13:22;;;;;;;7.18;5.13;;;12.80;99.90;;;;;;6245405;22;20073;-83
2022/04/06 12:15:48;;;;;;;11.82;5.00;;;12.70;99.90;;;;;;6244715;22;20372;-85
2022/04/06 12:18:18;;;;;;;11.20;4.60;;;12.80;99.90;;;;;;6245745;22;20810;-85
2022/04/06 12:20:46;;;;;;;6.40;4.85;;;12.70;99.90;;;;;;6245498;22;20044;-86
2022/04/06 12:23:13;;;;;;;8.70;5.05;;;12.70;99.90;;;;;;6243992;22;20421;-88
2022/04/06 12:25:39;;;;;;;10.02;5.60;;;12.70;99.90;;;;;;6244540;22;20061;-87
2022/04/06 12:28:13;;;;;;;11.65;5.10;;;12.60;99.90;;;;;;6242913;23;20004;-85
2022/04/06 12:30:58;;;;;;;7.93;4.80;;;12.60;99.90;;;;;;6245789;22;20028;-87
2022/04/06 12:33:38;;;;;;;10.43;4.93;;;12.70;99.90;;;;;;6245659;23;20000;-86
2022/04/06 12:36:08;;;;;;;7.72;5.15;;;12.70;99.90;;;;;;6243178;22;20007;-86
2022/04/06 12:38:37;;;;;;;8.35;4.75;;;12.60;99.90;;;;;;6247858;23;20006;-87
2022/04/06 12:41:14;;;;;;;6.03;4.72;;;12.70;99.90;;;;;;6243837;23;20023;-87
2022/04/06 12:43:44;;;;;;;7.45;5.03;;;12.70;99.90;;;;;;6245414;22;20134;-84
2022/04/06 12:46:11;;;;;;;9.25;4.45;;;12.70;99.90;;;;;;6242870;22;20000;-85
2022/04/06 12:48:37;;;;;;;7.85;4.00;;;12.70;99.90;;;;;;6269038;22;20026;-84
2022/04/06 12:51:21;;;;;;;6.25;4.25;;;12.70;99.90;;;;;;6246323;22;20596;-84
2022/04/06 12:53:50;;;;;;;5.60;3.95;;;12.80;99.90;;;;;;6245522;22;20005;-79
2022/04/06 12:56:23;;;;;;;7.68;4.10;;;12.80;99.90;;;;;;6248432;22;20007;-79